Time;durP1;ratioP1;P1;durP2;ratioP2;P2;SDS_P1;SDS_P2;PMS_P1;PMS_P2;Temp;Humidity;BMP_temperature;BMP_pressure;BME280_temperature;BME280_humidity;BME280_pressure;Samples;Min_cycle;Max_cycle;Signal;HPM_P1;HPM_P2
2021/05/14 00:00:42;;;;;;;8.80;5.00;;;;;;;13.69;59.35;100134.16;5068724;28;20262;-72
2021/05/14 00:03:10;;;;;;;11.77;4.77;;;;;;;13.53;60.47;100128.47;5074098;28;20289;-72
2021/05/14 00:05:38;;;;;;;11.20;5.30;;;;;;;13.25;63.07;100133.63;5069700;28;20207;-72
2021/05/14 00:08:06;;;;;;;10.50;5.23;;;;;;;13.12;63.13;100132.97;5068796;28;20205;-72
2021/05/14 00:10:38;;;;;;;11.07;5.67;;;;;;;13.02;63.49;100123.97;5074479;28;20273;-72
2021/05/14 00:13:06;;;;;;;8.80;5.50;;;;;;;12.99;63.54;100135.03;5070046;28;20203;-72
2021/05/14 00:15:34;;;;;;;9.17;5.43;;;;;;;12.79;64.60;100127.84;5069404;28;20287;-67
2021/05/14 00:18:02;;;;;;;10.83;5.60;;;;;;;12.96;62.84;100129.91;5068538;28;20203;-68
2021/05/14 00:20:30;;;;;;;12.30;5.40;;;;;;;12.91;61.48;100110.63;5067824;28;20276;-68
2021/05/14 00:22:58;;;;;;;9.43;5.50;;;;;;;13.07;61.38;100140.59;5069127;28;20660;-68
2021/05/14 00:25:26;;;;;;;10.33;5.57;;;;;;;12.96;61.48;100113.75;5069388;28;20608;-68
2021/05/14 00:27:54;;;;;;;11.87;5.80;;;;;;;13.11;60.79;100133.94;5068060;28;20206;-68
2021/05/14 00:30:22;;;;;;;8.50;4.70;;;;;;;13.14;60.48;100133.69;5068299;28;20193;-68
2021/05/14 00:32:50;;;;;;;9.90;5.43;;;;;;;13.15;59.79;100129.13;5068714;28;20310;-68
2021/05/14 00:35:18;;;;;;;7.30;4.87;;;;;;;13.15;59.85;100123.75;5067414;28;20557;-68
2021/05/14 00:37:46;;;;;;;11.30;5.20;;;;;;;13.12;59.00;100119.47;5068576;28;20243;-68
2021/05/14 00:40:15;;;;;;;8.70;5.20;;;;;;;13.12;59.51;100114.09;5070096;28;20323;-69
2021/05/14 00:42:42;;;;;;;7.97;4.90;;;;;;;13.14;59.12;100116.66;5069184;28;20280;-68
2021/05/14 00:45:11;;;;;;;8.70;5.10;;;;;;;13.09;58.90;100105.41;5068984;28;20287;-68
2021/05/14 00:47:39;;;;;;;9.50;5.37;;;;;;;13.01;59.49;100103.41;5068921;28;20203;-68
2021/05/14 00:50:08;;;;;;;6.83;4.53;;;;;;;12.86;60.08;100112.84;5105068;28;20197;-69
2021/05/14 00:52:36;;;;;;;7.03;4.33;;;;;;;12.65;60.76;100111.03;5074086;28;20781;-68
2021/05/14 00:55:06;;;;;;;8.63;4.90;;;;;;;12.53;61.26;100114.78;5074897;28;20207;-67
2021/05/14 00:57:34;;;;;;;10.80;4.93;;;;;;;12.43;60.99;100117.41;5060639;28;20568;-67
2021/05/14 01:00:02;;;;;;;7.10;4.23;;;;;;;12.37;60.93;100112.56;5072646;28;20676;-67
2021/05/14 01:02:29;;;;;;;7.93;4.77;;;;;;;12.19;60.46;100086.34;5073519;28;20202;-72
2021/05/14 01:04:58;;;;;;;9.00;5.20;;;;;;;12.27;60.66;100116.16;5082594;28;20200;-72
2021/05/14 01:07:26;;;;;;;8.83;4.80;;;;;;;12.28;60.23;100107.97;5073472;28;20204;-72
2021/05/14 01:09:54;;;;;;;9.47;5.10;;;;;;;12.29;60.41;100112.38;5076464;28;20260;-72
2021/05/14 01:12:22;;;;;;;8.03;4.93;;;;;;;12.25;61.01;100110.06;5072432;28;20230;-72
2021/05/14 01:14:50;;;;;;;8.67;4.50;;;;;;;12.16;60.69;100110.81;5071630;28;20204;-72
2021/05/14 01:17:18;;;;;;;9.27;4.67;;;;;;;12.13;60.58;100099.34;5073335;28;20200;-71
2021/05/14 01:19:45;;;;;;;22.03;17.23;;;;;;;12.12;60.57;100103.00;5071345;28;20210;-71
2021/05/14 01:22:14;;;;;;;669.97;342.83;;;;;;;12.08;60.22;100098.88;5075817;28;20260;-71
2021/05/14 01:24:42;;;;;;;51.13;25.17;;;;;;;12.01;61.24;100100.38;5074356;28;20227;-71
2021/05/14 01:27:10;;;;;;;12.43;7.70;;;;;;;11.91;64.29;100103.94;5076955;28;20209;-72
2021/05/14 01:29:37;;;;;;;14.03;7.53;;;;;;;11.86;64.06;100100.78;5073331;28;20197;-72
2021/05/14 01:32:06;;;;;;;14.37;8.33;;;;;;;11.85;63.74;100102.63;5072097;28;20212;-71
2021/05/14 01:34:34;;;;;;;9.67;6.13;;;;;;;11.83;63.00;100104.59;5070789;28;20216;-72
2021/05/14 01:37:01;;;;;;;12.57;5.03;;;;;;;11.78;63.25;100099.59;5071232;28;20754;-71
2021/05/14 01:39:30;;;;;;;9.30;5.13;;;;;;;11.73;62.82;100107.19;5071090;28;20225;-71
2021/05/14 01:41:59;;;;;;;10.73;5.57;;;;;;;11.67;62.48;100112.22;5070041;28;20726;-71
2021/05/14 01:44:28;;;;;;;12.03;6.00;;;;;;;11.37;62.76;100062.66;5071769;28;20209;-72
2021/05/14 01:46:55;;;;;;;12.23;5.90;;;;;;;11.59;62.42;100095.84;5072380;28;20230;-68
2021/05/14 01:49:23;;;;;;;10.67;5.77;;;;;;;11.52;62.62;100082.91;5071484;28;20671;-68
2021/05/14 01:51:51;;;;;;;9.67;5.23;;;;;;;11.10;62.16;100021.91;5077621;28;20207;-68
2021/05/14 01:54:20;;;;;;;10.77;5.77;;;;;;;11.42;62.47;100087.34;5070144;28;20200;-68
2021/05/14 01:56:50;;;;;;;12.03;5.47;;;;;;;11.41;63.21;100096.38;5069888;28;20209;-67
2021/05/14 01:59:18;;;;;;;11.07;5.30;;;;;;;11.38;62.53;100096.63;5071764;28;20864;-67
2021/05/14 02:01:45;;;;;;;9.80;5.17;;;;;;;11.35;62.09;100096.88;5068360;28;20302;-68
2021/05/14 02:04:13;;;;;;;11.00;5.37;;;;;;;11.29;62.84;100100.03;5071621;28;20220;-68
2021/05/14 02:06:41;;;;;;;13.13;5.50;;;;;;;11.28;62.77;100094.78;5073010;28;20288;-68
2021/05/14 02:09:09;;;;;;;12.77;5.17;;;;;;;11.22;62.59;100098.84;5079389;28;20200;-69
2021/05/14 02:11:37;;;;;;;9.63;5.50;;;;;;;11.13;62.94;100096.91;5071536;28;20236;-68
2021/05/14 02:14:05;;;;;;;11.70;5.00;;;;;;;11.19;62.25;100101.78;5069744;28;20287;-68
2021/05/14 02:16:33;;;;;;;10.53;5.40;;;;;;;11.09;62.70;100112.44;5071015;28;20208;-68
2021/05/14 02:19:01;;;;;;;9.03;5.03;;;;;;;10.95;63.67;100115.34;5069537;28;20274;-68
2021/05/14 02:21:28;;;;;;;9.17;4.90;;;;;;;10.88;63.54;100104.22;5058117;28;20562;-69
2021/05/14 02:23:56;;;;;;;16.90;5.30;;;;;;;10.94;63.21;100112.78;5070735;28;20206;-68
2021/05/14 02:26:24;;;;;;;9.63;5.60;;;;;;;10.94;62.44;100120.84;5069611;28;20203;-68
2021/05/14 02:28:51;;;;;;;9.23;5.30;;;;;;;10.93;62.76;100121.81;5069572;28;20204;-68
2021/05/14 02:31:20;;;;;;;9.17;4.53;;;;;;;10.88;63.04;100120.34;5070317;28;20201;-68
2021/05/14 02:33:47;;;;;;;9.17;5.03;;;;;;;10.88;62.61;100120.34;5079367;28;20205;-68
2021/05/14 02:36:15;;;;;;;8.40;4.53;;;;;;;10.88;62.38;100123.03;5075632;28;20225;-72
2021/05/14 02:38:43;;;;;;;11.63;5.30;;;;;;;10.84;62.33;100118.88;5070510;28;20231;-72
2021/05/14 02:41:12;;;;;;;9.07;5.10;;;;;;;10.85;62.81;100120.59;5082356;28;20578;-72
2021/05/14 02:43:40;;;;;;;10.40;5.30;;;;;;;10.84;62.44;100110.84;5070450;28;20671;-73
2021/05/14 02:46:09;;;;;;;8.63;4.80;;;;;;;10.81;62.35;100108.38;5076265;28;20750;-72
2021/05/14 02:48:37;;;;;;;8.97;4.83;;;;;;;10.49;62.59;100069.78;5077353;28;20196;-72
2021/05/14 02:51:06;;;;;;;11.17;5.13;;;;;;;10.23;62.98;100031.56;5075130;28;20197;-72
2021/05/14 02:53:35;;;;;;;9.23;5.13;;;;;;;10.70;63.42;100112.88;5070754;28;20209;-71
2021/05/14 02:56:03;;;;;;;7.63;5.03;;;;;;;10.71;63.15;100101.16;5069404;28;20204;-71
2021/05/14 02:58:31;;;;;;;11.00;4.67;;;;;;;10.76;62.94;100099.84;5070674;28;20208;-72
2021/05/14 03:00:58;;;;;;;11.00;5.43;;;;;;;10.86;62.76;100105.34;5076083;28;20251;-72
2021/05/14 03:03:26;;;;;;;8.77;4.70;;;;;;;10.97;62.89;100101.78;5083792;28;20293;-72
2021/05/14 03:05:55;;;;;;;9.97;5.40;;;;;;;11.05;63.44;100110.13;5070208;28;20210;-72
2021/05/14 03:08:23;;;;;;;7.67;4.80;;;;;;;11.12;64.34;100117.56;5068130;28;20333;-72
2021/05/14 03:10:50;;;;;;;9.87;4.83;;;;;;;11.24;64.30;100114.84;5077188;28;20969;-72
2021/05/14 03:13:18;;;;;;;9.63;5.17;;;;;;;11.38;63.89;100114.59;5069906;28;20215;-72
2021/05/14 03:15:46;;;;;;;13.40;5.57;;;;;;;11.51;63.33;100110.78;5069748;28;20280;-72
2021/05/14 03:18:13;;;;;;;16.07;5.37;;;;;;;11.62;62.64;100112.56;5068651;28;20203;-72
2021/05/14 03:20:41;;;;;;;10.77;5.23;;;;;;;11.75;62.94;100112.44;5069957;28;20236;-72
2021/05/14 03:23:11;;;;;;;14.30;5.50;;;;;;;11.83;62.75;100107.28;5074568;28;20284;-72
2021/05/14 03:25:38;;;;;;;14.83;5.50;;;;;;;11.85;63.52;100102.63;5066460;28;20224;-72
2021/05/14 03:28:06;;;;;;;8.40;5.27;;;;;;;12.08;64.01;100106.94;5069050;28;20189;-72
2021/05/14 03:30:34;;;;;;;9.10;5.30;;;;;;;12.36;63.91;100094.69;5078399;28;20226;-68
2021/05/14 03:33:02;;;;;;;10.23;5.30;;;;;;;12.71;63.83;100104.25;5074699;28;20192;-72
2021/05/14 03:35:29;;;;;;;8.63;5.50;;;;;;;12.64;63.14;100063.53;5069950;28;20286;-72
2021/05/14 03:37:57;;;;;;;10.23;5.37;;;;;;;12.99;62.71;100108.94;5068487;28;20189;-72
2021/05/14 03:40:34;;;;;;;8.53;4.90;;;;;;;12.74;62.61;100047.41;5069117;28;20233;-72
2021/05/14 03:43:04;;;;;;;10.13;5.40;;;;;;;12.91;62.79;100079.13;5070628;28;20313;-73
2021/05/14 03:45:32;;;;;;;8.30;5.10;;;;;;;13.17;62.39;100095.72;5069335;28;20193;-73
2021/05/14 03:48:00;;;;;;;13.10;5.27;;;;;;;13.29;62.25;100097.31;5076780;28;20201;-73
2021/05/14 03:50:31;;;;;;;9.37;5.43;;;;;;;13.24;62.37;100102.25;5074457;28;20195;-69
2021/05/14 03:53:03;;;;;;;8.60;4.67;;;;;;;13.11;61.74;100053.06;5068412;28;20204;-69
2021/05/14 03:55:31;;;;;;;9.87;5.10;;;;;;;13.33;61.97;100093.34;5061676;28;20660;-69
2021/05/14 03:57:59;;;;;;;12.33;5.03;;;;;;;13.34;62.64;100086.97;5074133;28;20214;-69
2021/05/14 04:00:27;;;;;;;10.23;5.57;;;;;;;13.34;63.13;100094.19;5069870;28;20203;-69
2021/05/14 04:02:55;;;;;;;9.13;5.77;;;;;;;12.98;63.27;100068.66;5070524;28;20661;-69
2021/05/14 04:05:24;;;;;;;12.03;5.40;;;;;;;13.22;62.98;100093.47;5069814;28;20203;-68
2021/05/14 04:07:51;;;;;;;8.80;5.37;;;;;;;13.23;63.52;100095.16;5066712;28;20202;-73
2021/05/14 04:10:30;;;;;;;9.27;4.87;;;;;;;13.28;63.06;100103.69;5073274;28;20581;-73
2021/05/14 04:15:41;;;;;;;9.93;5.40;;;;;;;13.27;63.80;100088.50;5038550;28;20315;-68
2021/05/14 04:18:09;;;;;;;9.03;4.97;;;;;;;13.31;64.15;100100.72;5076435;28;20209;-68
2021/05/14 04:20:37;;;;;;;7.10;5.10;;;;;;;13.33;63.77;100095.19;5068991;28;20204;-69
2021/05/14 04:23:05;;;;;;;10.43;5.30;;;;;;;13.36;63.76;100101.16;5073898;28;20581;-69
2021/05/14 04:25:37;;;;;;;10.10;4.50;;;;;;;13.39;63.89;100107.25;5068884;28;20193;-69
2021/05/14 04:28:06;;;;;;;8.70;5.07;;;;;;;13.38;64.49;100098.31;5067829;28;20655;-67
2021/05/14 04:30:34;;;;;;;11.00;5.20;;;;;;;13.40;64.31;100108.97;5069782;28;20241;-68
2021/05/14 04:33:02;;;;;;;9.40;5.20;;;;;;;13.51;63.90;100098.94;5065424;28;20298;-67
2021/05/14 04:35:29;;;;;;;8.97;4.60;;;;;;;13.55;64.44;100094.97;5069270;28;20221;-67
2021/05/14 04:37:57;;;;;;;7.97;4.70;;;;;;;13.62;64.54;100101.50;5068819;28;20685;-67
2021/05/14 04:40:25;;;;;;;10.63;4.67;;;;;;;13.68;65.21;100089.28;5069036;28;20201;-72
2021/05/14 04:42:53;;;;;;;9.80;4.97;;;;;;;13.81;64.74;100089.03;5069758;28;20233;-72
2021/05/14 04:45:21;;;;;;;6.40;4.27;;;;;;;13.94;64.05;100095.00;5068329;28;20676;-72
2021/05/14 04:47:49;;;;;;;9.87;4.40;;;;;;;14.04;63.67;100089.59;5073568;28;20675;-72
2021/05/14 04:50:18;;;;;;;8.23;4.33;;;;;;;14.16;63.28;100088.47;5067334;28;20258;-73
2021/05/14 04:52:46;;;;;;;7.10;3.90;;;;;;;14.30;62.22;100088.03;5074631;28;20569;-72
2021/05/14 04:55:15;;;;;;;6.73;4.00;;;;;;;14.39;62.53;100084.47;5068972;28;20225;-72
2021/05/14 04:57:43;;;;;;;6.13;3.97;;;;;;;14.49;63.00;100071.81;5062572;28;20209;-72
2021/05/14 05:00:16;;;;;;;7.37;3.80;;;;;;;14.62;62.99;100078.75;5061973;28;20205;-72
2021/05/14 05:02:44;;;;;;;7.73;4.17;;;;;;;14.66;63.25;100081.00;5069528;28;20712;-72
2021/05/14 05:05:13;;;;;;;7.07;4.03;;;;;;;14.70;64.60;100085.16;5063085;28;20296;-67
2021/05/14 05:07:41;;;;;;;6.57;3.77;;;;;;;14.83;64.06;100082.09;5067454;28;20275;-67
2021/05/14 05:10:09;;;;;;;6.53;3.80;;;;;;;14.99;64.02;100070.66;5067456;28;20327;-67
2021/05/14 05:12:37;;;;;;;6.30;4.10;;;;;;;15.12;63.21;100072.03;5063916;28;20296;-67
2021/05/14 05:15:06;;;;;;;11.50;4.10;;;;;;;15.16;63.57;100069.88;5064333;28;20315;-67
2021/05/14 05:17:37;;;;;;;10.47;3.53;;;;;;;15.21;62.26;100060.31;5068119;28;20197;-67
2021/05/14 05:20:07;;;;;;;6.13;3.67;;;;;;;15.25;62.38;100060.00;5064328;28;20225;-67
2021/05/14 05:22:35;;;;;;;4.33;3.20;;;;;;;15.32;62.11;100071.94;5067852;28;20861;-66
2021/05/14 05:25:04;;;;;;;7.70;3.97;;;;;;;15.41;61.37;100071.88;5068723;28;20204;-67
2021/05/14 05:27:32;;;;;;;5.63;3.40;;;;;;;15.66;60.35;100075.75;5068906;28;20235;-67
2021/05/14 05:30:00;;;;;;;6.20;3.67;;;;;;;15.89;60.50;100064.44;5069578;28;20189;-68
2021/05/14 05:32:27;;;;;;;7.33;3.77;;;;;;;16.08;60.62;100070.56;5065972;28;20190;-67
2021/05/14 05:34:56;;;;;;;6.77;3.40;;;;;;;16.28;60.32;100057.69;5064739;28;20291;-67
2021/05/14 05:37:25;;;;;;;11.40;3.50;;;;;;;16.45;59.66;100064.91;5068215;28;20287;-67
2021/05/14 05:39:52;;;;;;;5.10;3.40;;;;;;;16.67;59.73;100070.88;5067101;28;20742;-67
2021/05/14 05:42:20;;;;;;;6.80;3.03;;;;;;;16.80;59.27;100065.00;5068728;28;20311;-68
2021/05/14 05:44:48;;;;;;;5.03;2.60;;;;;;;16.95;58.63;100061.53;5071318;28;20205;-68
2021/05/14 05:47:16;;;;;;;4.13;2.50;;;;;;;17.05;57.74;100059.53;5072651;28;20190;-67
2021/05/14 05:49:44;;;;;;;5.47;2.60;;;;;;;17.18;57.68;100058.25;5075427;28;20201;-68
2021/05/14 05:52:11;;;;;;;7.00;2.30;;;;;;;17.25;57.36;100052.00;5071391;28;20280;-68
2021/05/14 05:54:40;;;;;;;41.50;36.60;;;;;;;17.32;56.36;100055.75;5075546;28;20223;-68
2021/05/14 05:57:08;;;;;;;39.57;22.20;;;;;;;17.37;56.43;100055.25;5064732;28;20225;-68
2021/05/14 05:59:38;;;;;;;10.93;5.90;;;;;;;17.39;56.95;100056.78;5062437;28;20212;-67
2021/05/14 06:02:06;;;;;;;10.30;5.20;;;;;;;17.47;57.38;100066.84;5064508;28;20220;-73
2021/05/14 06:04:34;;;;;;;154.37;27.13;;;;;;;17.53;56.60;100063.47;5066284;28;20194;-73
2021/05/14 06:07:01;;;;;;;37.40;9.53;;;;;;;17.33;56.52;100035.75;5067384;28;20197;-73
2021/05/14 06:09:29;;;;;;;26.33;6.33;;;;;;;17.65;56.38;100077.56;5070242;28;20195;-72
2021/05/14 06:11:58;;;;;;;25.47;6.70;;;;;;;17.58;55.28;100077.41;5067234;28;20260;-73
2021/05/14 06:14:26;;;;;;;19.50;4.90;;;;;;;17.73;55.11;100076.78;5070471;28;21262;-73
2021/05/14 06:16:54;;;;;;;18.13;3.97;;;;;;;18.10;54.67;100076.34;5072180;28;20763;-73
2021/05/14 06:19:24;;;;;;;10.37;3.70;;;;;;;18.10;53.67;100079.91;5067446;28;20197;-73
2021/05/14 06:21:52;;;;;;;7.23;3.00;;;;;;;18.19;53.96;100078.88;5070463;28;20668;-73
2021/05/14 06:24:20;;;;;;;10.80;2.73;;;;;;;18.40;53.07;100080.25;5068533;28;20332;-74
2021/05/14 06:26:49;;;;;;;6.73;3.00;;;;;;;18.53;54.19;100077.84;5069591;28;20220;-73
2021/05/14 06:29:17;;;;;;;5.80;3.30;;;;;;;18.39;54.97;100062.25;5066916;28;20201;-73
2021/05/14 06:31:45;;;;;;;5.57;3.47;;;;;;;18.62;54.61;100076.84;5073670;28;20213;-74
2021/05/14 06:34:13;;;;;;;6.33;3.17;;;;;;;19.05;54.41;100067.41;5065538;28;20304;-72
2021/05/14 06:36:41;;;;;;;11.47;3.30;;;;;;;19.34;53.59;100071.38;5056118;28;20223;-78
2021/05/14 06:39:09;;;;;;;10.27;3.90;;;;;;;19.48;53.36;100074.19;5069240;28;20835;-75
2021/05/14 06:41:37;;;;;;;6.73;3.43;;;;;;;19.71;52.62;100074.28;5076618;28;20197;-78
2021/05/14 06:44:05;;;;;;;4.40;3.40;;;;;;;19.83;52.46;100061.06;5076727;28;20192;-78
2021/05/14 06:46:34;;;;;;;4.33;2.87;;;;;;;20.01;51.74;100078.00;5071559;28;20193;-77
2021/05/14 06:49:01;;;;;;;3.43;2.90;;;;;;;20.18;50.78;100075.97;5072268;28;20229;-76
2021/05/14 06:51:37;;;;;;;6.90;3.33;;;;;;;20.35;49.88;100069.38;5070304;28;20204;-76
2021/05/14 06:54:06;;;;;;;5.63;3.50;;;;;;;20.31;49.22;100035.31;5068570;28;20222;-75
2021/05/14 06:56:33;;;;;;;5.07;3.23;;;;;;;20.64;48.36;100065.88;5065580;28;20681;-73
2021/05/14 06:59:02;;;;;;;4.83;3.37;;;;;;;20.70;48.27;100065.13;5061872;28;20271;-74
2021/05/14 07:01:30;;;;;;;6.43;3.23;;;;;;;20.84;48.01;100066.22;5062297;28;20211;-73
2021/05/14 07:03:59;;;;;;;4.43;3.27;;;;;;;20.97;47.81;100068.28;5063873;28;20229;-73
2021/05/14 07:06:28;;;;;;;5.33;3.37;;;;;;;21.02;47.87;100063.09;5065788;28;20694;-73
2021/05/14 07:08:56;;;;;;;5.47;3.17;;;;;;;20.88;47.94;100028.47;5062825;28;20785;-74
2021/05/14 07:11:23;;;;;;;4.60;3.73;;;;;;;21.06;48.57;100062.53;5062192;28;20359;-73
2021/05/14 07:13:51;;;;;;;4.83;3.30;;;;;;;21.08;48.02;100070.53;5062643;28;20623;-73
2021/05/14 07:16:19;;;;;;;5.50;3.17;;;;;;;21.22;48.15;100074.31;5093025;28;20201;-73
2021/05/14 07:18:47;;;;;;;5.47;3.27;;;;;;;21.30;47.93;100066.88;5062419;28;20632;-73
2021/05/14 07:21:15;;;;;;;4.77;2.80;;;;;;;21.43;47.01;100060.75;5059619;28;20201;-74
2021/05/14 07:23:55;;;;;;;3.53;3.00;;;;;;;21.62;46.53;100065.59;5059300;28;20241;-74
2021/05/14 07:26:25;;;;;;;5.03;2.90;;;;;;;21.72;46.61;100058.97;5066715;28;20653;-74
2021/05/14 07:28:57;;;;;;;4.83;2.93;;;;;;;21.45;46.72;100001.28;5060079;28;20201;-74
2021/05/14 07:31:25;;;;;;;4.90;2.73;;;;;;;21.95;46.38;100057.75;5061153;28;20204;-73
2021/05/14 07:33:53;;;;;;;6.23;2.73;;;;;;;22.01;46.47;100059.72;5062050;28;20251;-74
2021/05/14 07:36:22;;;;;;;2.70;2.50;;;;;;;22.07;46.31;100047.19;5054581;28;20203;-74
2021/05/14 07:38:49;;;;;;;4.00;2.70;;;;;;;22.27;45.73;100052.84;5061406;28;20679;-74
2021/05/14 07:41:17;;;;;;;2.73;2.10;;;;;;;22.44;44.53;100056.16;5062179;28;20205;-74
2021/05/14 07:43:47;;;;;;;4.07;2.10;;;;;;;22.54;44.38;100060.22;5076834;28;20236;-74
2021/05/14 07:46:15;;;;;;;1.97;1.77;;;;;;;22.52;44.44;100059.59;5065232;28;20664;-75
2021/05/14 07:48:43;;;;;;;3.33;2.33;;;;;;;22.53;44.49;100047.59;5059986;28;20664;-74
2021/05/14 07:51:12;;;;;;;2.40;2.07;;;;;;;22.65;43.81;100053.34;5058396;28;20225;-74
2021/05/14 07:53:40;;;;;;;2.17;1.80;;;;;;;22.60;43.92;100047.63;5060839;28;20652;-74
2021/05/14 07:56:09;;;;;;;3.77;2.30;;;;;;;22.59;44.20;100048.69;5060110;28;20201;-74
2021/05/14 07:58:37;;;;;;;3.53;2.00;;;;;;;22.48;43.70;100044.59;5059068;28;20193;-74
2021/05/14 08:01:05;;;;;;;3.00;2.37;;;;;;;22.47;43.75;100048.38;5060341;28;20285;-74
2021/05/14 08:03:32;;;;;;;2.50;2.00;;;;;;;22.53;43.97;100046.75;5058948;28;20225;-74
2021/05/14 08:06:00;;;;;;;2.07;1.90;;;;;;;22.69;44.08;100051.94;5066552;28;20246;-73
2021/05/14 08:08:28;;;;;;;2.57;1.70;;;;;;;22.84;42.80;100060.91;5060387;28;20215;-72
2021/05/14 08:10:57;;;;;;;1.73;1.60;;;;;;;22.86;42.45;100052.50;5060393;28;20684;-73
2021/05/14 08:13:25;;;;;;;2.80;1.93;;;;;;;22.83;42.42;100055.63;5060389;28;20548;-72
2021/05/14 08:15:53;;;;;;;2.43;1.80;;;;;;;22.77;42.55;100059.16;5061350;28;20558;-72
2021/05/14 08:18:22;;;;;;;3.50;2.20;;;;;;;22.79;43.11;100059.78;5064711;28;20577;-73
2021/05/14 08:20:50;;;;;;;2.03;1.83;;;;;;;22.39;42.40;100029.38;5058406;28;20205;-71
2021/05/14 08:23:20;;;;;;;1.50;1.37;;;;;;;22.53;42.68;100044.00;5060279;28;20244;-72
2021/05/14 08:25:49;;;;;;;1.40;1.30;;;;;;;22.66;42.32;100049.59;5065043;28;20676;-73
2021/05/14 08:28:18;;;;;;;2.70;1.63;;;;;;;22.82;42.33;100052.03;5064686;28;20292;-76
2021/05/14 08:30:48;;;;;;;4.37;1.50;;;;;;;22.89;42.09;100063.03;5064354;28;20639;-76
2021/05/14 08:33:16;;;;;;;1.40;1.30;;;;;;;23.03;42.27;100058.50;5067146;28;20197;-76
2021/05/14 08:35:45;;;;;;;1.43;1.30;;;;;;;23.17;40.48;100054.78;5069327;28;20193;-76
2021/05/14 08:38:13;;;;;;;1.50;1.40;;;;;;;23.21;40.84;100062.38;5065444;28;20755;-73
2021/05/14 08:40:41;;;;;;;1.57;1.20;;;;;;;22.99;40.66;100008.75;5064161;28;21686;-77
2021/05/14 08:43:11;;;;;;;1.20;1.10;;;;;;;23.20;39.97;100043.41;5064318;28;20218;-77
2021/05/14 08:45:43;;;;;;;0.90;0.90;;;;;;;23.22;40.21;100031.19;5066614;28;20201;-76
2021/05/14 08:48:12;;;;;;;2.20;1.20;;;;;;;23.42;39.84;100045.00;5059272;28;20555;-78
2021/05/14 08:50:42;;;;;;;3.97;1.40;;;;;;;23.48;39.95;100052.41;5066607;28;20201;-75
2021/05/14 08:53:30;;;;;;;1.00;1.00;;;;;;;23.59;39.64;100047.44;5086039;28;20189;-76
2021/05/14 08:55:58;;;;;;;2.53;0.90;;;;;;;23.67;39.76;100047.25;5068498;28;20217;-76
2021/05/14 08:58:26;;;;;;;2.40;1.10;;;;;;;23.81;38.30;100047.06;5071657;28;20276;-76
2021/05/14 09:00:55;;;;;;;1.87;1.07;;;;;;;23.81;38.68;100040.72;5067762;28;20205;-75
2021/05/14 09:03:25;;;;;;;1.00;1.00;;;;;;;23.94;38.28;100050.91;5071393;28;20235;-75
2021/05/14 09:05:53;;;;;;;5.10;1.03;;;;;;;23.97;38.20;100039.50;5067330;28;20210;-76
2021/05/14 09:08:28;;;;;;;1.07;1.07;;;;;;;24.06;37.08;100044.56;5075495;28;20675;-76
2021/05/14 09:10:57;;;;;;;1.43;1.07;;;;;;;24.00;37.46;100044.56;5073083;28;20589;-73
2021/05/14 09:13:35;;;;;;;1.00;1.00;;;;;;;24.05;37.51;100053.03;5072285;28;20197;-73
2021/05/14 09:16:05;;;;;;;1.50;1.40;;;;;;;23.06;37.25;100069.91;5069488;28;20209;-74
2021/05/14 09:18:33;;;;;;;2.10;1.90;;;;;;;22.17;38.76;100079.69;5078374;28;20275;-76
2021/05/14 09:21:02;;;;;;;3.47;1.80;;;;;;;20.91;40.57;100085.41;5072317;28;20185;-69
2021/05/14 09:23:33;;;;;;;2.87;2.30;;;;;;;19.90;43.72;100077.53;5071033;28;20285;-69
2021/05/14 09:26:03;;;;;;;2.97;2.30;;;;;;;19.52;45.97;100091.88;5069269;28;20219;-69
2021/05/14 09:28:32;;;;;;;3.30;2.70;;;;;;;18.71;48.04;100089.44;5073469;28;20201;-75
2021/05/14 09:31:03;;;;;;;4.53;2.67;;;;;;;17.93;49.36;100057.28;5071653;28;20229;-75
2021/05/14 09:33:33;;;;;;;4.13;3.00;;;;;;;17.86;50.76;100096.16;5074217;28;20195;-75
2021/05/14 09:36:01;;;;;;;4.57;2.47;;;;;;;17.57;51.66;100089.28;5068496;28;20205;-76
2021/05/14 09:38:38;;;;;;;5.43;3.13;;;;;;;17.31;52.21;100085.78;5066641;28;20277;-76
2021/05/14 09:41:06;;;;;;;5.57;2.63;;;;;;;17.12;52.41;100091.44;5070283;28;20209;-75
2021/05/14 09:44:00;;;;;;;5.13;2.70;;;;;;;17.15;53.49;100083.00;5074955;28;20240;-75
2021/05/14 09:46:33;;;;;;;5.47;2.70;;;;;;;17.32;53.43;100084.75;5069106;28;20198;-75
2021/05/14 09:49:08;;;;;;;3.43;2.40;;;;;;;17.10;52.50;100045.47;5073534;28;20308;-74
2021/05/14 09:51:46;;;;;;;5.00;2.67;;;;;;;17.32;52.70;100073.91;5067849;28;20662;-73
2021/05/14 09:54:22;;;;;;;8.17;2.50;;;;;;;17.38;52.31;100070.53;5070295;28;20204;-74
2021/05/14 09:57:19;;;;;;;5.63;2.67;;;;;;;17.30;52.86;100062.38;5071257;28;20226;-74
2021/05/14 09:59:50;;;;;;;4.03;2.43;;;;;;;17.30;52.41;100073.22;5069827;28;20276;-75
2021/05/14 10:02:23;;;;;;;5.00;2.70;;;;;;;17.34;52.81;100077.31;5065230;28;20280;-73
2021/05/14 10:04:52;;;;;;;2.83;2.10;;;;;;;16.85;52.01;100009.28;5065784;28;20766;-75
2021/05/14 10:07:20;;;;;;;3.13;2.37;;;;;;;16.64;51.80;100000.66;5068666;28;20624;-75
2021/05/14 10:09:52;;;;;;;3.27;2.40;;;;;;;17.04;52.49;100062.41;5068721;28;20212;-74
2021/05/14 10:12:20;;;;;;;4.30;2.10;;;;;;;17.21;52.14;100074.22;5070395;28;20231;-75
2021/05/14 10:14:49;;;;;;;5.33;2.10;;;;;;;17.11;53.23;100077.03;5071848;28;20202;-70
2021/05/14 10:17:16;;;;;;;6.53;2.30;;;;;;;17.17;53.35;100081.84;5069727;28;21016;-69
2021/05/14 10:19:46;;;;;;;2.43;2.00;;;;;;;16.86;53.16;100059.81;5065793;28;20205;-69
2021/05/14 10:22:16;;;;;;;5.17;2.20;;;;;;;17.16;51.87;100079.28;5066323;28;20201;-69
2021/05/14 10:24:45;;;;;;;3.23;2.07;;;;;;;17.21;51.92;100079.63;5068845;28;20343;-69
2021/05/14 10:27:17;;;;;;;3.63;2.00;;;;;;;17.33;53.63;100092.75;5069260;28;20300;-69
2021/05/14 10:29:48;;;;;;;3.20;1.80;;;;;;;17.00;51.42;100017.63;5065213;28;20898;-67
2021/05/14 10:32:16;;;;;;;2.50;1.87;;;;;;;17.55;51.32;100079.59;5075971;28;20197;-67
2021/05/14 10:34:44;;;;;;;3.10;2.00;;;;;;;17.55;50.54;100072.28;5070656;28;20217;-68
2021/05/14 10:37:11;;;;;;;7.07;2.00;;;;;;;17.69;51.22;100070.81;5072956;28;20212;-68
2021/05/14 10:39:43;;;;;;;4.93;2.00;;;;;;;17.79;50.20;100043.53;5072272;28;20226;-68
2021/05/14 10:42:13;;;;;;;4.30;1.90;;;;;;;17.99;50.35;100088.38;5063128;28;20277;-69
2021/05/14 10:44:52;;;;;;;2.33;1.83;;;;;;;18.03;50.20;100081.56;5075591;28;20315;-69
2021/05/14 10:47:44;;;;;;;1.70;1.60;;;;;;;17.77;49.00;100038.25;5069450;28;20217;-70
2021/05/14 10:50:33;;;;;;;1.50;1.40;;;;;;;18.07;47.98;100068.53;5062546;28;20599;-68
2021/05/14 10:53:37;;;;;;;2.27;1.80;;;;;;;18.27;49.56;100069.88;5060379;28;21729;-70
2021/05/14 10:56:26;;;;;;;2.63;1.37;;;;;;;18.40;49.43;100067.50;5089974;27;20211;-70
2021/05/14 10:59:07;;;;;;;4.47;1.80;;;;;;;18.05;48.42;100006.16;5058689;28;20255;-70
2021/05/14 11:01:37;;;;;;;1.60;1.50;;;;;;;18.43;47.24;100074.47;5058347;28;20211;-70
2021/05/14 11:04:21;;;;;;;1.40;1.30;;;;;;;18.41;46.90;100057.47;5058561;28;20236;-70
2021/05/14 11:06:50;;;;;;;6.23;1.57;;;;;;;18.53;46.95;100073.25;5060672;28;20181;-68
2021/05/14 11:09:19;;;;;;;1.80;1.50;;;;;;;18.55;47.12;100076.66;5063130;28;20189;-71
2021/05/14 11:11:56;;;;;;;1.70;1.50;;;;;;;18.68;47.49;100069.88;5065011;28;20600;-75
2021/05/14 11:14:26;;;;;;;4.90;1.80;;;;;;;18.40;48.04;100023.16;5063118;28;20284;-75
2021/05/14 11:16:56;;;;;;;3.93;1.73;;;;;;;18.65;47.53;100065.59;5064873;28;20723;-75
2021/05/14 11:19:26;;;;;;;1.53;1.40;;;;;;;18.24;47.79;100056.63;5062909;28;20197;-75
2021/05/14 11:22:09;;;;;;;1.40;1.30;;;;;;;18.17;47.82;100071.91;5075751;28;20201;-75
2021/05/14 11:24:40;;;;;;;1.60;1.20;;;;;;;18.17;48.31;100067.34;5076854;28;20564;-75
2021/05/14 11:27:11;;;;;;;7.40;1.27;;;;;;;18.07;46.62;100079.41;5065972;28;20232;-70
2021/05/14 11:29:44;;;;;;;3.50;1.20;;;;;;;18.14;47.63;100073.09;5064450;28;20201;-70
2021/05/14 11:32:32;;;;;;;6.10;1.40;;;;;;;18.10;47.58;100071.75;5064112;28;20194;-75
2021/05/14 11:35:08;;;;;;;3.60;1.00;;;;;;;17.98;45.52;100075.78;5062511;28;20675;-76